createdAt,value
2023-04-22T00:01:10.582Z,8.68
2023-04-22T00:03:39.089Z,8.15
2023-04-22T00:06:06.769Z,7.85
2023-04-22T00:08:33.690Z,9.32
2023-04-22T00:11:01.121Z,9.07
2023-04-22T00:13:28.240Z,7.88
2023-04-22T00:15:55.500Z,8.18
2023-04-22T00:18:22.389Z,8.23
2023-04-22T00:20:49.663Z,8.23
2023-04-22T00:23:16.867Z,8.00
2023-04-22T00:25:43.790Z,8.23
2023-04-22T00:28:11.215Z,7.90
2023-04-22T00:30:38.118Z,7.82
2023-04-22T00:33:05.166Z,7.30
2023-04-22T00:35:32.161Z,8.00
2023-04-22T00:37:59.439Z,8.30
2023-04-22T00:40:26.659Z,8.40
2023-04-22T00:42:53.996Z,7.70
2023-04-22T00:45:21.408Z,7.75
2023-04-22T00:47:49.322Z,7.32
2023-04-22T00:50:16.390Z,7.72
2023-04-22T00:52:43.673Z,7.45
2023-04-22T00:55:11.935Z,7.00
2023-04-22T00:57:39.511Z,7.13
2023-04-22T01:00:07.377Z,7.47
2023-04-22T01:02:34.720Z,8.77
2023-04-22T01:05:04.032Z,8.27
2023-04-22T01:07:30.850Z,7.80
2023-04-22T01:09:58.071Z,6.95
2023-04-22T01:12:24.938Z,7.40
2023-04-22T01:14:52.137Z,7.40
2023-04-22T01:17:19.600Z,7.70
2023-04-22T01:19:47.561Z,7.75
2023-04-22T01:22:15.520Z,7.25
2023-04-22T01:24:42.829Z,7.20
2023-04-22T01:27:09.834Z,7.13
2023-04-22T01:29:38.725Z,6.78
2023-04-22T01:32:07.120Z,7.38
2023-04-22T01:34:34.388Z,6.65
2023-04-22T01:37:01.612Z,8.20
2023-04-22T01:39:30.058Z,7.90
2023-04-22T01:41:58.599Z,7.75
2023-04-22T01:44:26.857Z,7.30
2023-04-22T01:46:53.864Z,6.25
2023-04-22T01:49:21.481Z,7.25
2023-04-22T01:51:48.337Z,7.75
2023-04-22T01:54:16.172Z,7.25
2023-04-22T01:56:48.870Z,7.05
2023-04-22T01:59:16.310Z,7.45
2023-04-22T02:01:43.661Z,6.53
2023-04-22T02:04:10.866Z,6.28
2023-04-22T02:06:38.217Z,7.00
2023-04-22T02:09:05.515Z,6.10
2023-04-22T02:11:32.746Z,6.90
2023-04-22T02:13:59.583Z,6.97
2023-04-22T02:16:26.825Z,6.95
2023-04-22T02:18:53.651Z,7.03
2023-04-22T02:21:20.524Z,7.15
2023-04-22T02:23:47.814Z,6.93
2023-04-22T02:26:15.043Z,6.85
2023-04-22T02:28:42.915Z,6.30
2023-04-22T02:31:10.091Z,7.10
2023-04-22T02:33:37.645Z,7.45
2023-04-22T02:36:04.617Z,6.90
2023-04-22T02:38:31.850Z,7.63
2023-04-22T02:40:58.712Z,7.95
2023-04-22T02:43:26.040Z,7.45
2023-04-22T02:45:53.247Z,8.27
2023-04-22T02:48:20.048Z,8.20
2023-04-22T02:50:46.904Z,7.75
2023-04-22T02:53:13.731Z,8.50
2023-04-22T02:55:42.031Z,9.10
2023-04-22T02:58:09.393Z,9.20
2023-04-22T03:00:36.340Z,8.82
2023-04-22T03:03:03.807Z,8.93
2023-04-22T03:05:31.190Z,9.63
2023-04-22T03:07:58.443Z,8.80
2023-04-22T03:10:25.273Z,8.77
2023-04-22T03:12:52.134Z,9.55
2023-04-22T03:15:21.267Z,9.15
2023-04-22T03:17:49.209Z,9.25
2023-04-22T03:20:17.091Z,9.05
2023-04-22T03:22:43.986Z,9.55
2023-04-22T03:25:11.704Z,10.05
2023-04-22T03:27:38.616Z,14.40
2023-04-22T03:30:06.699Z,11.82
2023-04-22T03:32:33.939Z,12.10
2023-04-22T03:35:01.398Z,12.30
2023-04-22T03:37:28.858Z,10.00
2023-04-22T03:39:56.409Z,10.18
2023-04-22T03:42:23.307Z,11.43
2023-04-22T03:44:50.200Z,10.98
2023-04-22T03:47:17.448Z,10.05
2023-04-22T03:49:44.708Z,9.82
2023-04-22T03:52:11.992Z,12.20
2023-04-22T03:54:39.211Z,12.75
2023-04-22T03:57:06.061Z,13.05
2023-04-22T03:59:33.306Z,10.57
2023-04-22T04:02:00.134Z,9.73
2023-04-22T04:04:30.190Z,9.45
2023-04-22T04:06:57.265Z,9.85
2023-04-22T04:09:24.825Z,9.10
2023-04-22T04:11:52.399Z,10.68
2023-04-22T04:14:19.336Z,10.43
2023-04-22T04:16:46.173Z,9.23
2023-04-22T04:19:13.009Z,8.95
2023-04-22T04:21:39.814Z,8.98
2023-04-22T04:24:07.154Z,8.20
2023-04-22T04:26:34.719Z,9.45
2023-04-22T04:29:05.751Z,8.90
2023-04-22T04:31:32.621Z,8.35
2023-04-22T04:34:00.407Z,9.57
2023-04-22T04:36:29.164Z,8.30
2023-04-22T04:38:56.843Z,11.80
2023-04-22T04:41:23.866Z,11.57
2023-04-22T04:43:51.905Z,9.95
2023-04-22T04:46:20.917Z,9.52
2023-04-22T04:48:48.822Z,9.60
2023-04-22T04:51:18.182Z,10.20
2023-04-22T04:53:46.835Z,10.05
2023-04-22T04:56:13.874Z,9.48
2023-04-22T04:58:40.711Z,9.00
2023-04-22T05:01:07.919Z,9.40
2023-04-22T05:03:35.406Z,8.88
2023-04-22T05:06:03.147Z,8.38
2023-04-22T05:08:30.405Z,7.93
2023-04-22T05:10:57.678Z,8.77
2023-04-22T05:13:24.575Z,8.30
2023-04-22T05:15:51.380Z,8.27
2023-04-22T05:18:18.999Z,9.43
2023-04-22T05:20:45.804Z,9.02
2023-04-22T05:23:12.624Z,9.13
2023-04-22T05:25:39.501Z,10.57
2023-04-22T05:28:06.518Z,9.50
2023-04-22T05:30:33.446Z,9.82
2023-04-22T05:33:00.411Z,8.93
2023-04-22T05:35:27.848Z,8.02
2023-04-22T05:37:55.070Z,9.27
2023-04-22T05:40:22.395Z,9.18
2023-04-22T05:42:49.201Z,8.43
2023-04-22T05:45:16.214Z,9.93
2023-04-22T05:47:43.301Z,9.32
2023-04-22T05:50:10.425Z,8.02
2023-04-22T05:52:37.625Z,8.25
2023-04-22T05:55:04.943Z,7.10
2023-04-22T05:57:32.209Z,7.10
2023-04-22T06:00:03.450Z,6.78
2023-04-22T06:02:30.869Z,7.07
2023-04-22T06:04:57.934Z,6.82
2023-04-22T06:07:25.014Z,7.80
2023-04-22T06:10:02.167Z,7.32
2023-04-22T06:12:31.197Z,7.95
2023-04-22T06:14:58.204Z,7.90
2023-04-22T06:17:25.193Z,8.20
2023-04-22T06:19:52.414Z,7.85
2023-04-22T06:22:21.961Z,7.80
2023-04-22T06:24:48.764Z,6.60
2023-04-22T06:27:16.030Z,5.25
2023-04-22T06:29:43.916Z,5.47
2023-04-22T06:32:10.769Z,5.57
2023-04-22T06:34:38.822Z,5.32
2023-04-22T06:37:06.304Z,5.40
2023-04-22T06:39:33.515Z,5.88
2023-04-22T06:42:01.741Z,5.18
2023-04-22T06:44:29.218Z,5.82
2023-04-22T06:46:58.058Z,6.28
2023-04-22T06:49:25.384Z,7.15
2023-04-22T06:51:52.377Z,7.63
2023-04-22T06:54:19.233Z,7.32
2023-04-22T06:56:46.577Z,7.68
2023-04-22T06:59:13.786Z,8.13
2023-04-22T07:01:41.302Z,7.07
2023-04-22T07:04:08.590Z,6.35
2023-04-22T07:06:35.466Z,8.25
2023-04-22T07:09:03.532Z,5.68
2023-04-22T07:11:34.231Z,4.35
2023-04-22T07:14:01.624Z,4.43
2023-04-22T07:16:28.937Z,5.70
2023-04-22T07:18:56.246Z,4.53
2023-04-22T07:21:23.638Z,5.57
2023-04-22T07:23:50.820Z,6.32
2023-04-22T07:26:17.803Z,4.80
2023-04-22T07:28:44.671Z,4.97
2023-04-22T07:31:11.522Z,4.32
2023-04-22T07:33:38.371Z,3.60
2023-04-22T07:36:06.134Z,3.25
2023-04-22T07:38:33.018Z,3.70
2023-04-22T07:40:59.925Z,3.22
2023-04-22T07:43:26.949Z,2.90
2023-04-22T07:45:54.218Z,3.05
2023-04-22T07:48:21.195Z,3.10
2023-04-22T07:50:48.475Z,4.32
2023-04-22T07:53:17.503Z,4.20
2023-04-22T07:55:44.763Z,3.25
2023-04-22T07:58:12.048Z,3.00
2023-04-22T08:00:38.924Z,3.10
2023-04-22T08:03:05.893Z,2.63
2023-04-22T08:05:32.997Z,4.25
2023-04-22T08:07:59.887Z,4.35
2023-04-22T08:10:26.844Z,4.00
2023-04-22T08:12:54.159Z,2.60
2023-04-22T08:15:20.988Z,2.60
2023-04-22T08:17:47.877Z,2.55
2023-04-22T08:20:16.393Z,2.38
2023-04-22T08:22:43.640Z,2.22
2023-04-22T08:25:10.781Z,2.47
2023-04-22T08:27:38.450Z,2.97
2023-04-22T08:30:06.810Z,2.75
2023-04-22T08:32:33.711Z,2.63
2023-04-22T08:35:04.824Z,2.38
2023-04-22T08:37:32.426Z,2.35
2023-04-22T08:39:59.704Z,2.40
2023-04-22T08:42:27.862Z,3.58
2023-04-22T08:44:55.262Z,2.95
2023-04-22T08:47:22.349Z,4.07
2023-04-22T08:49:51.913Z,4.30
2023-04-22T08:52:19.539Z,4.13
2023-04-22T08:54:46.793Z,4.20
2023-04-22T08:57:15.344Z,3.83
2023-04-22T08:59:42.730Z,3.83
2023-04-22T09:02:17.615Z,3.80
2023-04-22T09:04:46.859Z,4.38
2023-04-22T09:07:20.679Z,3.38
2023-04-22T09:09:48.639Z,3.42
2023-04-22T09:12:17.948Z,3.55
2023-04-22T09:14:46.202Z,3.60
2023-04-22T09:17:29.565Z,3.38
2023-04-22T09:20:00.580Z,4.50
2023-04-22T09:22:29.572Z,15.57
2023-04-22T09:24:56.593Z,3.45
2023-04-22T09:27:25.625Z,4.57
2023-04-22T09:29:53.052Z,3.30
2023-04-22T09:32:20.563Z,3.45
2023-04-22T09:34:52.946Z,3.22
2023-04-22T09:37:33.237Z,2.92
2023-04-22T09:40:09.872Z,3.10
2023-04-22T09:42:48.702Z,2.72
2023-04-22T09:45:29.012Z,3.13
2023-04-22T09:47:57.858Z,2.92
2023-04-22T09:50:26.840Z,3.30
2023-04-22T09:52:58.811Z,2.40
2023-04-22T09:55:27.326Z,2.50
2023-04-22T09:57:56.273Z,2.53
2023-04-22T10:00:27.627Z,2.65
2023-04-22T10:02:54.990Z,3.03
2023-04-22T10:05:22.299Z,8.63
2023-04-22T10:07:50.040Z,2.47
2023-04-22T10:10:17.455Z,4.43
2023-04-22T10:12:44.907Z,5.10
2023-04-22T10:15:12.431Z,2.70
2023-04-22T10:17:40.100Z,2.30
2023-04-22T10:20:15.740Z,2.63
2023-04-22T10:22:43.087Z,3.17
2023-04-22T10:25:13.127Z,2.63
2023-04-22T10:27:40.557Z,3.00
2023-04-22T10:30:08.977Z,2.65
2023-04-22T10:32:36.334Z,2.78
2023-04-22T10:35:12.303Z,3.13
2023-04-22T10:37:42.378Z,3.10
2023-04-22T10:40:17.765Z,3.40
2023-04-22T10:42:51.588Z,3.22
2023-04-22T10:45:18.915Z,2.92
2023-04-22T10:47:46.232Z,3.55
2023-04-22T10:50:26.986Z,5.10
2023-04-22T10:53:03.357Z,3.20
2023-04-22T10:55:53.032Z,4.05
2023-04-22T10:58:21.843Z,3.10
2023-04-22T11:00:54.554Z,9.60
2023-04-22T11:03:27.974Z,5.75
2023-04-22T11:06:17.698Z,3.95
2023-04-22T11:08:49.102Z,3.13
2023-04-22T11:11:19.035Z,2.97
2023-04-22T11:13:50.386Z,2.80
2023-04-22T11:16:19.309Z,3.03
2023-04-22T11:18:48.229Z,3.60
2023-04-22T11:21:15.658Z,3.00
2023-04-22T11:23:53.904Z,2.78
2023-04-22T11:26:34.222Z,2.80
2023-04-22T11:29:01.904Z,2.65
2023-04-22T11:31:28.760Z,3.10
2023-04-22T11:33:59.762Z,3.05
2023-04-22T11:36:27.766Z,2.90
2023-04-22T11:38:56.268Z,3.30
2023-04-22T11:41:23.920Z,2.92
2023-04-22T11:43:51.311Z,3.00
2023-04-22T11:46:29.230Z,3.42
2023-04-22T11:49:14.870Z,3.85
2023-04-22T11:51:55.534Z,4.90
2023-04-22T11:54:31.985Z,3.33
2023-04-22T11:57:02.271Z,3.90
2023-04-22T11:59:29.509Z,3.90
2023-04-22T12:01:56.802Z,3.80
2023-04-22T12:04:24.103Z,4.85
2023-04-22T12:06:53.806Z,3.50
2023-04-22T12:09:25.795Z,3.47
2023-04-22T12:11:52.777Z,3.17
2023-04-22T12:14:19.612Z,3.50
2023-04-22T12:16:47.515Z,3.45
2023-04-22T12:19:14.452Z,3.78
2023-04-22T12:21:42.186Z,3.30
2023-04-22T12:24:12.884Z,3.53
2023-04-22T12:26:40.532Z,3.60
2023-04-22T12:29:07.446Z,3.38
2023-04-22T12:31:35.164Z,4.45
2023-04-22T12:34:02.496Z,3.70
2023-04-22T12:36:32.552Z,4.55
2023-04-22T12:38:59.474Z,4.45
2023-04-22T12:41:26.316Z,3.92
2023-04-22T12:43:55.296Z,3.63
2023-04-22T12:46:22.193Z,3.58
2023-04-22T12:48:49.443Z,3.67
2023-04-22T12:51:16.653Z,3.88
2023-04-22T12:53:43.897Z,3.80
2023-04-22T12:56:10.937Z,3.63
2023-04-22T12:58:38.156Z,5.40
2023-04-22T13:01:05.514Z,4.10
2023-04-22T13:03:32.894Z,3.78
2023-04-22T13:06:00.258Z,4.72
2023-04-22T13:08:27.916Z,6.55
2023-04-22T13:10:55.275Z,4.78
2023-04-22T13:13:22.467Z,5.50
2023-04-22T13:15:54.463Z,4.90
2023-04-22T13:18:23.398Z,4.80
2023-04-22T13:20:51.432Z,4.40
2023-04-22T13:23:21.826Z,3.80
2023-04-22T13:25:49.330Z,4.28
2023-04-22T13:28:16.550Z,3.97
2023-04-22T13:30:43.763Z,4.15
2023-04-22T13:33:10.569Z,4.03
2023-04-22T13:35:37.487Z,4.10
2023-04-22T13:38:05.612Z,4.18
2023-04-22T13:40:33.024Z,4.05
2023-04-22T13:43:00.411Z,3.95
2023-04-22T13:45:27.706Z,4.00
2023-04-22T13:47:54.904Z,5.20
2023-04-22T13:50:22.184Z,5.57
2023-04-22T13:52:49.421Z,4.30
2023-04-22T13:55:16.698Z,4.57
2023-04-22T13:57:44.585Z,4.45
2023-04-22T14:00:12.462Z,4.88
2023-04-22T14:02:39.509Z,5.00
2023-04-22T14:05:07.502Z,5.38
2023-04-22T14:07:34.955Z,3.97
2023-04-22T14:10:01.782Z,6.05
2023-04-22T14:12:28.648Z,4.18
2023-04-22T14:14:55.486Z,4.72
2023-04-22T14:17:23.903Z,3.85
2023-04-22T14:19:51.131Z,6.97
2023-04-22T14:22:18.363Z,4.05
2023-04-22T14:24:45.632Z,3.70
2023-04-22T14:27:12.682Z,4.00
2023-04-22T14:29:41.147Z,4.43
2023-04-22T14:32:08.680Z,3.88
2023-04-22T14:34:35.883Z,3.90
2023-04-22T14:37:02.744Z,4.20
2023-04-22T14:39:29.945Z,3.97
2023-04-22T14:41:58.048Z,4.25
2023-04-22T14:44:25.186Z,3.95
2023-04-22T14:46:52.105Z,4.38
2023-04-22T14:49:19.314Z,4.32
2023-04-22T14:51:46.903Z,4.50
2023-04-22T14:54:13.903Z,4.55
2023-04-22T14:56:40.772Z,4.40
2023-04-22T14:59:07.660Z,6.13
2023-04-22T15:01:36.037Z,4.78
2023-04-22T15:04:03.430Z,4.30
2023-04-22T15:06:31.153Z,7.38
2023-04-22T15:08:58.415Z,8.13
2023-04-22T15:11:25.628Z,4.50
2023-04-22T15:13:52.577Z,3.92
2023-04-22T15:16:19.783Z,4.45
2023-04-22T15:18:47.079Z,3.97
2023-04-22T15:21:13.963Z,4.78
2023-04-22T15:23:40.976Z,5.68
2023-04-22T15:26:08.224Z,6.00
2023-04-22T15:28:35.810Z,4.88
2023-04-22T15:31:03.314Z,4.88
2023-04-22T15:33:30.191Z,4.80
2023-04-22T15:35:57.075Z,4.65
2023-04-22T15:38:24.762Z,4.30
2023-04-22T15:40:51.606Z,4.13
2023-04-22T15:43:18.834Z,4.43
2023-04-22T15:45:45.641Z,4.20
2023-04-22T15:48:12.531Z,4.25
2023-04-22T15:50:41.038Z,4.45
2023-04-22T15:53:07.941Z,6.38
2023-04-22T15:55:35.334Z,4.90
2023-04-22T15:58:02.852Z,4.65
2023-04-22T16:00:30.063Z,6.07
2023-04-22T16:02:57.383Z,3.80
2023-04-22T16:05:25.198Z,4.10
2023-04-22T16:07:53.378Z,3.78
2023-04-22T16:10:21.008Z,4.70
2023-04-22T16:12:48.376Z,4.18
2023-04-22T16:15:16.588Z,4.07
2023-04-22T16:17:44.344Z,3.85
2023-04-22T16:20:11.910Z,4.07
2023-04-22T16:22:38.933Z,3.53
2023-04-22T16:25:06.631Z,3.63
2023-04-22T16:27:33.472Z,3.40
2023-04-22T16:30:00.484Z,3.67
2023-04-22T16:32:27.351Z,3.38
2023-04-22T16:34:54.578Z,3.58
2023-04-22T16:37:21.386Z,4.57
2023-04-22T16:39:48.228Z,3.80
2023-04-22T16:42:15.599Z,4.15
2023-04-22T16:44:42.795Z,4.63
2023-04-22T16:47:09.651Z,5.28
2023-04-22T16:49:36.533Z,5.35
2023-04-22T16:52:03.739Z,5.35
2023-04-22T16:54:30.601Z,6.10
2023-04-22T16:56:57.722Z,5.85
2023-04-22T16:59:24.961Z,7.10
2023-04-22T17:01:52.017Z,7.30
2023-04-22T17:04:19.497Z,7.50
2023-04-22T17:06:46.603Z,7.70
2023-04-22T17:09:13.880Z,8.90
2023-04-22T17:11:41.126Z,7.93
2023-04-22T17:14:08.236Z,8.82
2023-04-22T17:16:35.199Z,9.00
2023-04-22T17:19:02.078Z,8.30
2023-04-22T17:21:28.934Z,7.90
2023-04-22T17:23:56.177Z,7.30
2023-04-22T17:26:23.594Z,7.45
2023-04-22T17:28:50.954Z,8.73
2023-04-22T17:31:18.234Z,8.00
2023-04-22T17:33:45.554Z,8.18
2023-04-22T17:36:12.465Z,9.35
2023-04-22T17:38:41.084Z,10.55
2023-04-22T17:41:08.186Z,13.07
2023-04-22T17:43:35.368Z,15.30
2023-04-22T17:46:03.150Z,18.63
2023-04-22T17:48:30.403Z,17.85
2023-04-22T17:51:01.408Z,17.55
2023-04-22T17:53:28.214Z,18.10
2023-04-22T17:55:55.800Z,16.52
2023-04-22T17:58:23.016Z,16.23
2023-04-22T18:00:50.493Z,17.17
2023-04-22T18:03:18.021Z,16.45
2023-04-22T18:05:44.972Z,16.13
2023-04-22T18:08:12.238Z,16.35
2023-04-22T18:10:39.653Z,15.27
2023-04-22T18:13:07.097Z,15.73
2023-04-22T18:15:33.973Z,17.08
2023-04-22T18:18:01.463Z,16.88
2023-04-22T18:20:28.445Z,18.52
2023-04-22T18:22:56.506Z,16.08
2023-04-22T18:25:24.306Z,13.38
2023-04-22T18:27:55.053Z,14.48
2023-04-22T18:30:25.029Z,15.10
2023-04-22T18:32:52.433Z,15.63
2023-04-22T18:35:20.272Z,15.73
2023-04-22T18:37:47.776Z,16.02
2023-04-22T18:40:15.091Z,17.58
2023-04-22T18:42:44.804Z,23.02
2023-04-22T18:45:12.580Z,17.75
2023-04-22T18:47:39.616Z,17.20
2023-04-22T18:50:07.064Z,18.98
2023-04-22T18:52:34.677Z,17.77
2023-04-22T18:55:01.926Z,18.50
2023-04-22T18:57:28.938Z,18.73
2023-04-22T18:59:56.223Z,18.40
2023-04-22T19:02:24.186Z,17.77
2023-04-22T19:04:52.748Z,19.58
2023-04-22T19:07:20.057Z,19.50
2023-04-22T19:09:47.237Z,18.73
2023-04-22T19:12:16.698Z,18.67
2023-04-22T19:14:43.873Z,16.13
2023-04-22T19:17:11.072Z,17.13
2023-04-22T19:19:37.922Z,15.52
2023-04-22T19:22:05.552Z,14.77
2023-04-22T19:24:35.223Z,16.17
2023-04-22T19:27:02.974Z,15.60
2023-04-22T19:29:30.871Z,15.63
2023-04-22T19:31:58.905Z,16.83
2023-04-22T19:34:27.393Z,16.73
2023-04-22T19:36:54.550Z,16.40
2023-04-22T19:39:22.057Z,17.38
2023-04-22T19:41:49.403Z,17.50
2023-04-22T19:44:17.042Z,18.27
2023-04-22T19:46:43.950Z,19.33
2023-04-22T19:49:11.074Z,18.27
2023-04-22T19:51:39.484Z,17.85
2023-04-22T19:54:07.564Z,18.60
2023-04-22T19:56:34.927Z,18.25
2023-04-22T19:59:02.710Z,18.00
2023-04-22T20:01:29.843Z,17.60
2023-04-22T20:03:57.468Z,18.35
2023-04-22T20:06:24.968Z,18.05
2023-04-22T20:08:53.686Z,18.98
2023-04-22T20:11:21.803Z,19.02
2023-04-22T20:13:49.786Z,18.17
2023-04-22T20:16:19.360Z,17.15
2023-04-22T20:18:46.834Z,16.75
2023-04-22T20:21:14.729Z,15.60
2023-04-22T20:23:42.832Z,15.43
2023-04-22T20:26:10.527Z,17.80
2023-04-22T20:28:46.087Z,20.98
2023-04-22T20:31:22.352Z,22.52
2023-04-22T20:33:50.821Z,23.50
2023-04-22T20:36:19.861Z,26.75
2023-04-22T20:38:50.971Z,25.10
2023-04-22T20:41:18.796Z,24.92
2023-04-22T20:43:46.634Z,24.75
2023-04-22T20:46:14.265Z,25.45
2023-04-22T20:48:42.609Z,25.08
2023-04-22T20:51:09.815Z,24.13
2023-04-22T20:53:37.150Z,23.15
2023-04-22T20:56:05.174Z,22.25
2023-04-22T20:58:33.306Z,22.05
2023-04-22T21:01:00.353Z,22.00
2023-04-22T21:03:27.916Z,22.50
2023-04-22T21:05:56.395Z,20.10
2023-04-22T21:08:25.446Z,17.95
2023-04-22T21:10:56.612Z,17.65
2023-04-22T21:13:24.304Z,16.25
2023-04-22T21:16:04.447Z,14.38
2023-04-22T21:18:33.505Z,14.85
2023-04-22T21:21:04.106Z,17.15
2023-04-22T21:23:31.644Z,20.95
2023-04-22T21:26:00.935Z,19.75
2023-04-22T21:28:28.818Z,18.00
2023-04-22T21:30:56.354Z,17.13
2023-04-22T21:33:25.243Z,16.25
2023-04-22T21:35:52.314Z,16.77
2023-04-22T21:38:19.982Z,24.15
2023-04-22T21:40:50.279Z,18.95
2023-04-22T21:43:17.548Z,17.75
2023-04-22T21:45:44.379Z,17.90
2023-04-22T21:48:11.131Z,19.33
2023-04-22T21:50:37.862Z,19.92
2023-04-22T21:53:04.686Z,18.67
2023-04-22T21:55:31.499Z,20.40
2023-04-22T21:57:58.457Z,21.63
2023-04-22T22:00:25.920Z,20.85
2023-04-22T22:02:53.110Z,20.88
2023-04-22T22:05:20.326Z,22.33
2023-04-22T22:07:47.892Z,21.02
2023-04-22T22:10:19.219Z,20.98
2023-04-22T22:12:46.963Z,19.63
2023-04-22T22:15:15.395Z,18.73
2023-04-22T22:17:42.837Z,17.58
2023-04-22T22:20:14.488Z,20.35
2023-04-22T22:22:42.883Z,18.38
2023-04-22T22:25:12.204Z,16.70
2023-04-22T22:27:41.070Z,16.17
2023-04-22T22:30:08.697Z,18.00
2023-04-22T22:32:36.413Z,16.75
2023-04-22T22:35:03.977Z,17.27
2023-04-22T22:37:30.854Z,17.75
2023-04-22T22:39:57.744Z,17.73
2023-04-22T22:42:24.970Z,18.25
2023-04-22T22:44:51.807Z,17.92
2023-04-22T22:47:19.176Z,18.52
2023-04-22T22:49:46.590Z,18.10
2023-04-22T22:52:14.149Z,17.92
2023-04-22T22:54:41.806Z,17.15
2023-04-22T22:57:09.214Z,17.15
2023-04-22T22:59:37.312Z,17.23
2023-04-22T23:02:04.791Z,15.95
2023-04-22T23:04:32.643Z,16.70
2023-04-22T23:07:00.010Z,14.40
2023-04-22T23:09:27.226Z,13.63
2023-04-22T23:11:55.512Z,12.70
2023-04-22T23:14:23.385Z,12.55
2023-04-22T23:16:50.991Z,10.50
2023-04-22T23:19:18.262Z,12.55
2023-04-22T23:21:46.776Z,11.68
2023-04-22T23:24:15.124Z,10.57
2023-04-22T23:26:42.616Z,10.88
2023-04-22T23:29:10.515Z,10.25
2023-04-22T23:31:39.529Z,11.60
2023-04-22T23:34:06.757Z,11.38
2023-04-22T23:36:38.844Z,11.80
2023-04-22T23:39:09.834Z,13.38
2023-04-22T23:41:36.921Z,11.60
2023-04-22T23:44:04.549Z,12.48
2023-04-22T23:46:31.435Z,13.38
2023-04-22T23:48:59.017Z,13.80
2023-04-22T23:51:26.055Z,13.93
2023-04-22T23:53:52.922Z,12.68
2023-04-22T23:56:22.891Z,13.32
2023-04-22T23:58:51.101Z,13.40
